Change the Weather History Date:

Monday, January 27, 2014

  Actual Average Record
Temperature  
Mean Temperature 16 °F -  
Max Temperature 23 °F 34 °F 48 °F (2002)
Min Temperature 10 °F 22 °F -4 °F (2006)
Degree Days  
Heating Degree Days 48    
Moisture  
Dew Point 14 °F    
Average Humidity 88    
Maximum Humidity 95    
Minimum Humidity 71    
Precipitation  
Precipitation 0.00 in - - ()
Sea Level Pressure  
Sea Level Pressure 29.70 in    
Wind  
Wind Speed 5 mph ()    
Max Wind Speed 12 mph    
Max Gust Speed -    
Visibility 3.5 miles    
Events Snow    
Averages and records for this station are not official NWS values.
T = Trace of Precipitation, MM = Missing Value Source: Averaged Metar Reports

Daily Weather History Graph

Daily Weather History Graph

Search for Another Location

Airport or City:

Trip Planner

Search our weather history database for the weather conditions in past years. The results will help you decide how hot, cold, wet, or windy it might be!

Date:

Astronomy

Jan. 27, 2014 Rise Set
Actual Time 7:25 AM CET 4:27 PM CET
Civil Twilight 6:49 AM CET 5:03 PM CET
Nautical Twilight 6:10 AM CET 5:43 PM CET
Astronomical Twilight 5:31 AM CET 6:21 PM CET
Moon 3:52 AM CET (1/27) 12:50 PM CET (1/27)
Length of Visible Light 10h 13m
Length of Day
9h 01m
Waning Crescent, 17% of the Moon is Illuminated
Jan 27
Waning Crescent
Jan 30
New
Feb 6
First Quarter
Feb 15
Full
Feb 22
Last Quarter

Hourly Weather History & Observations

Time (CET) Temp. Windchill Dew Point Humidity Pressure Visibility Wind Dir Wind Speed Gust Speed Precip Events Conditions
12:00 AM 11 °F - 9 °F 86% 29.91 in 2 mi ENE 4.5 mph - -   Mist
12:00 AM 10.4 °F 2.2 °F 8.6 °F 92% 29.80 in 2.5 mi ESE 4.6 mph - N/A   Mist
12:30 AM 10.4 °F 4.0 °F 8.6 °F 92% 29.77 in 2.5 mi East 3.5 mph - N/A   Mist
1:00 AM 10 °F - 9 °F 91% 29.88 in 2 mi ENE 2.2 mph - -   Mist
1:00 AM 8.6 °F -1.3 °F 6.8 °F 92% 29.77 in 2.5 mi East 5.8 mph - N/A   Mist
1:30 AM 10.4 °F -0.4 °F 8.6 °F 92% 29.74 in 2.5 mi ESE 6.9 mph - N/A   Mist
2:00 AM 12 °F - 10 °F 89% 29.85 in 2 mi East 4.5 mph - -   Mist
2:00 AM 8.6 °F 0.1 °F 6.8 °F 92% 29.74 in 2.5 mi ESE 4.6 mph - N/A   Mist
2:30 AM 10.4 °F 2.2 °F 8.6 °F 92% 29.74 in 2.5 mi ESE 4.6 mph - N/A   Partly Cloudy
3:00 AM 13 °F - 11 °F 88% 29.83 in 2 mi East 6.7 mph - -   Mist
3:00 AM 10.4 °F 0.8 °F 8.6 °F 92% 29.71 in 2.5 mi East 5.8 mph - N/A   Mist
3:30 AM 8.6 °F -1.3 °F 6.8 °F 92% 29.71 in 2.5 mi East 5.8 mph - N/A   Mist
4:00 AM 13 °F - 12 °F 95% 29.81 in 2 mi East 8.9 mph - -   Mist
4:00 AM 10.4 °F 2.2 °F 8.6 °F 92% 29.68 in 3.1 mi ESE 4.6 mph - N/A   Scattered Clouds
4:30 AM 10.4 °F 2.2 °F 8.6 °F 92% 29.68 in 3.1 mi ESE 4.6 mph - N/A   Mist
5:00 AM 14 °F - 13 °F 91% 29.81 in 2 mi ESE 6.7 mph - -   Mist
5:00 AM 10.4 °F 4.0 °F 8.6 °F 92% 29.71 in 2.5 mi East 3.5 mph - N/A   Mist
5:30 AM 10.4 °F 0.8 °F 8.6 °F 92% 29.68 in 3.7 mi East 5.8 mph - N/A   Unknown
6:00 AM 14 °F - 12 °F 89% 29.78 in 2 mi East 6.7 mph - -   Mist
6:00 AM 10.4 °F -0.4 °F 8.6 °F 92% 29.68 in 3.7 mi East 6.9 mph - N/A   Scattered Clouds
6:30 AM 12.2 °F 1.7 °F 10.4 °F 92% 29.65 in 3.1 mi East 6.9 mph - N/A Snow Light Snow Grains
7:00 AM 13 °F - 12 °F 94% 29.77 in 2 mi East 8.9 mph - -   Mist
7:00 AM 12.2 °F -0.2 °F 10.4 °F 92% 29.65 in 3.7 mi East 9.2 mph - N/A   Mostly Cloudy
7:30 AM 12.2 °F 2.9 °F 10.4 °F 92% 29.65 in 3.7 mi East 5.8 mph - N/A   Partly Cloudy
8:00 AM 13 °F - 12 °F 92% 29.77 in 2 mi East 6.7 mph - -   Mist
8:00 AM 12.2 °F 1.7 °F 10.4 °F 92% 29.65 in 3.7 mi East 6.9 mph - N/A   Unknown
8:30 AM 12.2 °F 2.9 °F 8.6 °F 85% 29.65 in 3.7 mi East 5.8 mph - N/A   Unknown
9:00 AM 12 °F - 11 °F 91% 29.77 in 3 mi East 6.7 mph - -   Mist
9:00 AM 12.2 °F 2.9 °F 8.6 °F 85% 29.65 in 4.3 mi ESE 5.8 mph - N/A   Unknown
9:30 AM 12.2 °F 0.7 °F 10.4 °F 92% 29.65 in 5.0 mi East 8.1 mph - N/A   Unknown
10:00 AM 15 °F - 13 °F 85% 29.76 in 3 mi ESE 6.7 mph - -   Mist
10:00 AM 14.0 °F 3.9 °F 10.4 °F 86% 29.65 in 5.0 mi East 6.9 mph - N/A   Unknown
10:30 AM 15.8 °F 7.2 °F 12.2 °F 86% 29.65 in 5.0 mi East 5.8 mph - N/A   Unknown
11:00 AM 18 °F - 15 °F 82% 29.75 in 3 mi East 4.5 mph - -   Mist
11:00 AM 17.6 °F 9.3 °F 14.0 °F 86% 29.65 in 5.0 mi East 5.8 mph - N/A   Unknown
11:30 AM 19.4 °F 12.8 °F 15.8 °F 86% 29.65 in 5.0 mi ESE 4.6 mph - N/A   Unknown
12:00 PM 21 °F - 17 °F 78% 29.73 in 3 mi ESE 4.5 mph - -   Mist
12:00 PM 21.2 °F 16.4 °F 15.8 °F 80% 29.62 in 5.0 mi SE 3.5 mph - N/A   Unknown
12:30 PM 21.2 °F 14.9 °F 17.6 °F 86% 29.62 in 5.0 mi East 4.6 mph - N/A   Unknown
1:00 PM 23 °F - 17 °F 71% 29.72 in 3 mi ESE 8.9 mph - -   Mist
1:00 PM 23.0 °F 13.9 °F 19.4 °F 86% 29.62 in 5.0 mi East 8.1 mph - N/A   Unknown
1:30 PM 23.0 °F 13.9 °F 19.4 °F 86% 29.62 in 4.3 mi East 8.1 mph - N/A   Unknown
2:00 PM 23 °F - 18 °F 73% 29.71 in 4 mi ESE 8.9 mph - -   Mist
2:00 PM 23.0 °F 13.1 °F 21.2 °F 93% 29.62 in 4.3 mi East 9.2 mph - N/A   Unknown
2:30 PM 23.0 °F 13.9 °F 21.2 °F 93% 29.62 in 4.3 mi East 8.1 mph - N/A   Unknown
3:00 PM 24 °F - 18 °F 71% 29.71 in 4 mi East 6.7 mph - -   Mist
3:00 PM 23.0 °F 13.1 °F 19.4 °F 86% 29.62 in 4.3 mi East 9.2 mph - N/A   Unknown
3:30 PM 23.0 °F 13.1 °F 19.4 °F 86% 29.62 in 4.3 mi East 9.2 mph - N/A   Unknown
4:00 PM 22 °F - 17 °F 73% 29.72 in 4 mi East 8.9 mph - -   Mist
4:00 PM 21.2 °F 12.6 °F 17.6 °F 86% 29.62 in 4.3 mi East 6.9 mph - N/A   Unknown
4:30 PM 19.4 °F 8.6 °F 17.6 °F 93% 29.62 in 4.3 mi East 9.2 mph - N/A   Unknown
5:00 PM 20 °F - 16 °F 79% 29.73 in 3 mi East 6.7 mph - -   Mist
5:00 PM 19.4 °F 8.6 °F 17.6 °F 93% 29.62 in 4.3 mi East 9.2 mph - N/A   Unknown
5:30 PM 19.4 °F 8.6 °F 17.6 °F 93% 29.62 in 4.3 mi East 9.2 mph - N/A   Unknown
6:00 PM 20 °F - 16 °F 79% 29.74 in 3 mi East 6.7 mph - -   Mist
6:00 PM 19.4 °F 7.2 °F 15.8 °F 86% 29.62 in 3.7 mi ESE 11.5 mph - N/A   Unknown
6:30 PM 19.4 °F 8.6 °F 15.8 °F 86% 29.65 in 3.7 mi ESE 9.2 mph - N/A   Unknown
7:00 PM 19 °F - 16 °F 85% 29.75 in 4 mi East 4.5 mph - -   Mist
7:00 PM 19.4 °F 10.4 °F 15.8 °F 86% 29.65 in 3.7 mi ESE 6.9 mph - N/A   Unknown
7:30 PM 19.4 °F 14.3 °F 15.8 °F 86% 29.65 in 3.7 mi ESE 3.5 mph - N/A   Unknown
8:00 PM 20 °F - 17 °F 84% 29.75 in 4 mi ESE 4.5 mph - -   Mist
8:00 PM 19.4 °F 11.5 °F 17.6 °F 93% 29.65 in 3.7 mi ESE 5.8 mph - N/A   Unknown
8:30 PM 19.4 °F 11.5 °F 17.6 °F 93% 29.65 in 3.7 mi East 5.8 mph - N/A   Unknown
9:00 PM 19 °F - 17 °F 87% 29.76 in 4 mi East 4.5 mph - -   Mist
9:00 PM 17.6 °F 9.3 °F 15.8 °F 93% 29.65 in 3.1 mi East 5.8 mph - N/A   Mist
9:30 PM 17.6 °F 9.3 °F 15.8 °F 93% 29.65 in 3.7 mi East 5.8 mph - N/A   Unknown
10:00 PM 19 °F - 17 °F 85% 29.76 in 4 mi East 4.5 mph - -   Mist
10:00 PM 17.6 °F 10.7 °F 15.8 °F 93% 29.65 in 3.7 mi East 4.6 mph - N/A   Unknown
10:30 PM 17.6 °F 9.3 °F 15.8 °F 93% 29.65 in 3.7 mi East 5.8 mph - N/A   Unknown
11:00 PM 18 °F - 16 °F 89% 29.78 in 3 mi ENE 2.2 mph - -   Mist
11:00 PM 17.6 °F 9.3 °F 15.8 °F 93% 29.68 in 3.7 mi East 5.8 mph - N/A   Unknown
11:30 PM 17.6 °F 12.3 °F 15.8 °F 93% 29.68 in 3.7 mi East 3.5 mph - N/A   Unknown